Time;durP1;ratioP1;P1;durP2;ratioP2;P2;SDS_P1;SDS_P2;PMS_P1;PMS_P2;Temp;Humidity;BMP_temperature;BMP_pressure;BME280_temperature;BME280_humidity;BME280_pressure;Samples;Min_cycle;Max_cycle;Signal;HPM_P1;HPM_P2
2021/04/22 00:10:53;;;;;;;42.50;11.08;;;;;;;7.21;88.60;99854.61;714932;1200;113202;-77
2021/04/22 00:26:13;;;;;;;11.78;5.28;;;;;;;7.09;90.24;99860.83;714725;1198;114690;-78
2021/04/22 00:41:33;;;;;;;7.13;3.85;;;;;;;6.43;90.19;99870.27;714596;1200;115188;-77
2021/04/22 00:56:54;;;;;;;7.40;3.50;;;;;;;6.19;92.31;99866.94;714671;1198;112629;-77
2021/04/22 01:12:14;;;;;;;14.55;5.58;;;;;;;6.07;93.55;99864.34;717522;1163;114426;-73
2021/04/22 01:27:37;;;;;;;9.40;4.10;;;;;;;5.93;96.16;99861.91;714141;1202;113298;-75
2021/04/22 01:42:58;;;;;;;8.47;4.93;;;;;;;5.61;98.00;99878.98;714305;1176;114117;-74
2021/04/22 01:58:22;;;;;;;10.65;3.50;;;;;;;5.48;99.00;99888.64;714062;1199;114516;-73
2021/04/22 02:13:42;;;;;;;29.37;10.97;;;;;;;5.39;100.00;99887.52;714037;1199;114366;-74
2021/04/22 02:29:03;;;;;;;28.93;9.53;;;;;;;5.16;100.00;99879.62;713803;1203;114686;-74
2021/04/22 02:44:23;;;;;;;9.03;4.40;;;;;;;5.03;100.00;99890.99;713822;1199;113583;-78
2021/04/22 02:59:44;;;;;;;10.70;4.08;;;;;;;4.85;100.00;99882.75;713785;1203;113140;-75
2021/04/22 03:15:05;;;;;;;10.10;3.45;;;;;;;4.69;99.26;99889.02;713873;1199;114406;-76
2021/04/22 03:30:29;;;;;;;7.30;3.00;;;;;;;4.70;97.43;99892.43;714049;1202;114613;-78
2021/04/22 03:45:49;;;;;;;12.98;4.78;;;;;;;4.53;96.52;99902.23;714850;1199;113779;-76
2021/04/22 04:01:10;;;;;;;18.65;6.38;;;;;;;4.37;97.31;99912.85;714441;1202;113941;-82
2021/04/22 04:16:31;;;;;;;13.95;4.40;;;;;;;4.21;96.40;99932.98;715261;1199;114072;-82
2021/04/22 04:31:51;;;;;;;17.90;6.67;;;;;;;4.29;95.70;99947.13;714580;1199;114349;-82
2021/04/22 04:47:11;;;;;;;26.68;7.10;;;;;;;4.16;96.92;99951.48;714568;1201;113972;-82
2021/04/22 05:02:33;;;;;;;15.67;4.73;;;;;;;4.27;97.08;99950.77;714152;1199;114068;-82
2021/04/22 05:17:54;;;;;;;17.35;4.55;;;;;;;4.58;96.20;99953.87;714166;1199;114215;-82
2021/04/22 05:33:15;;;;;;;14.55;4.00;;;;;;;5.04;93.84;99953.31;714367;1199;114402;-80
2021/04/22 05:48:36;;;;;;;24.10;10.15;;;;;;;5.50;91.45;99949.18;713804;1202;114557;-86
2021/04/22 06:03:57;;;;;;;21.80;6.33;;;;;;;5.99;89.62;99963.02;713923;1200;113904;-87
2021/04/22 06:19:17;;;;;;;18.23;6.25;;;;;;;6.35;87.01;99965.59;714265;1202;114666;-87
2021/04/22 06:34:38;;;;;;;12.73;4.43;;;;;;;6.80;83.56;99960.44;714252;1203;114303;-78
2021/04/22 06:49:58;;;;;;;21.75;8.00;;;;;;;6.93;82.17;99971.57;714150;1199;114878;-78
2021/04/22 07:05:21;;;;;;;19.38;7.05;;;;;;;7.35;79.50;99985.74;714562;1200;113687;-78
2021/04/22 07:20:41;;;;;;;29.78;9.50;;;;;;;7.43;78.13;100005.07;714106;1199;113948;-78
2021/04/22 07:36:02;;;;;;;33.25;8.90;;;;;;;7.04;77.69;100009.85;714132;1175;113418;-77
2021/04/22 07:51:22;;;;;;;30.80;9.90;;;;;;;7.94;76.84;100010.61;713923;1187;113862;-79
2021/04/22 08:06:43;;;;;;;22.85;8.48;;;;;;;8.60;74.27;100015.63;714142;1199;114124;-78
2021/04/22 08:22:04;;;;;;;25.95;9.45;;;;;;;7.99;73.00;100030.17;714341;1177;113430;-78
2021/04/22 08:37:24;;;;;;;19.85;7.10;;;;;;;8.03;72.39;100032.56;713853;1202;113467;-77
2021/04/22 08:52:48;;;;;;;20.40;7.75;;;;;;;8.04;72.73;100035.04;713955;1188;113471;-79
2021/04/22 09:08:09;;;;;;;15.63;7.23;;;;;;;8.89;71.72;100061.23;714032;1199;114478;-77
2021/04/22 09:23:30;;;;;;;37.65;18.13;;;;;;;8.53;69.79;100039.83;714200;1201;115126;-78
2021/04/22 09:38:55;;;;;;;28.07;11.50;;;;;;;9.10;68.42;100021.94;714002;1199;114930;-78
2021/04/22 09:54:23;;;;;;;15.90;5.17;;;;;;;9.82;64.97;100028.72;714242;1200;113742;-76
2021/04/22 10:09:44;;;;;;;10.15;3.98;;;;;;;11.14;61.88;100024.66;714133;1200;114023;-77
2021/04/22 10:25:09;;;;;;;11.65;3.98;;;;;;;10.75;58.10;100015.12;714112;1199;114501;-75
2021/04/22 10:40:33;;;;;;;13.38;4.55;;;;;;;11.11;58.37;99983.77;714488;1199;114246;-75
2021/04/22 10:55:57;;;;;;;15.27;5.43;;;;;;;11.01;55.21;99993.48;715280;1199;115130;-72
2021/04/22 11:11:30;;;;;;;16.83;4.90;;;;;;;11.66;53.41;99992.55;714368;1199;114150;-78
2021/04/22 11:27:02;;;;;;;10.33;5.23;;;;;;;10.77;58.47;100002.70;715023;1196;115262;-79
2021/04/22 11:42:23;;;;;;;9.40;3.27;;;;;;;11.06;54.05;100037.66;714486;1199;114424;-73
2021/04/22 11:58:06;;;;;;;144.95;43.18;;;;;;;12.20;54.19;99994.38;714044;1202;114155;-73
2021/04/22 12:13:27;;;;;;;10.23;5.60;;;;;;;12.28;48.43;100012.83;713921;1199;114748;-73
2021/04/22 12:28:50;;;;;;;15.47;5.80;;;;;;;12.54;49.87;100035.72;714051;1200;113910;-73
2021/04/22 12:44:11;;;;;;;6.88;2.43;;;;;;;11.60;49.18;100056.19;714288;1199;114570;-73
2021/04/22 12:59:32;;;;;;;16.00;7.30;;;;;;;11.43;50.91;100060.46;714255;1199;114699;-72
2021/04/22 13:14:55;;;;;;;16.05;6.65;;;;;;;10.68;52.63;100047.30;714078;1199;114060;-72
2021/04/22 13:30:16;;;;;;;12.80;6.55;;;;;;;7.85;68.75;100107.99;714194;1202;114285;-72
2021/04/22 13:45:37;;;;;;;8.13;3.20;;;;;;;8.99;62.87;100056.88;713948;1175;113994;-76
2021/04/22 14:00:58;;;;;;;8.27;3.23;;;;;;;10.20;61.29;100052.47;714316;1202;114621;-76
2021/04/22 14:16:22;;;;;;;10.90;2.83;;;;;;;9.06;59.26;100070.27;714337;1200;114038;-77
2021/04/22 14:31:46;;;;;;;5.30;2.55;;;;;;;12.71;55.32;100071.69;715939;1189;113370;-76
2021/04/22 14:47:06;;;;;;;14.23;4.07;;;;;;;10.52;52.27;100093.33;715995;1199;115489;-76
2021/04/22 15:02:27;;;;;;;30.10;11.63;;;;;;;11.15;51.68;100090.14;715305;1199;113899;-76
2021/04/22 15:17:47;;;;;;;8.13;3.43;;;;;;;10.47;49.70;100114.70;714940;1188;114123;-76
2021/04/22 15:33:09;;;;;;;11.73;4.00;;;;;;;10.26;51.59;100134.97;714646;1202;114916;-74
2021/04/22 15:48:30;;;;;;;28.25;10.43;;;;;;;9.68;55.38;100206.41;714384;1199;115574;-74
2021/04/22 16:03:51;;;;;;;18.53;8.05;;;;;;;9.39;53.94;100215.77;714301;1199;115161;-72
2021/04/22 16:19:12;;;;;;;40.93;21.45;;;;;;;8.55;53.71;100221.77;713973;1202;115012;-78
2021/04/22 16:34:33;;;;;;;18.85;7.68;;;;;;;8.33;55.83;100227.86;714093;1202;113772;-76
2021/04/22 16:49:54;;;;;;;13.10;6.63;;;;;;;8.05;57.67;100250.94;713924;1202;115035;-77
2021/04/22 17:05:16;;;;;;;15.03;4.88;;;;;;;7.23;60.05;100258.90;714055;1200;113741;-71
2021/04/22 17:20:37;;;;;;;23.78;12.33;;;;;;;7.09;61.67;100268.58;714300;1199;115047;-72
2021/04/22 17:35:58;;;;;;;22.20;10.70;;;;;;;6.96;63.25;100284.30;714592;1199;114648;-75
2021/04/22 17:51:19;;;;;;;40.43;17.25;;;;;;;6.92;63.99;100301.11;714728;1175;114274;-79
2021/04/22 18:06:40;;;;;;;53.45;31.75;;;;;;;6.81;65.83;100321.94;714597;1199;114798;-79
2021/04/22 18:22:00;;;;;;;29.28;17.38;;;;;;;6.61;66.67;100321.58;714797;1199;113649;-74
2021/04/22 18:37:20;;;;;;;29.40;14.67;;;;;;;6.66;67.74;100329.05;714902;1200;115177;-74
2021/04/22 18:52:41;;;;;;;35.53;12.73;;;;;;;6.62;68.05;100332.83;714343;1177;113838;-77
2021/04/22 19:08:04;;;;;;;43.30;16.20;;;;;;;6.49;68.03;100330.23;714170;1202;114526;-84
2021/04/22 19:23:24;;;;;;;14.98;8.15;;;;;;;6.49;68.95;100325.88;715180;1199;115480;-73
2021/04/22 19:38:45;;;;;;;22.75;8.65;;;;;;;6.39;68.74;100326.61;715530;1199;114379;-74
2021/04/22 19:54:08;;;;;;;15.03;7.33;;;;;;;6.41;70.14;100367.26;714540;1199;114990;-74
2021/04/22 20:09:29;;;;;;;17.43;7.73;;;;;;;5.85;78.25;100409.22;714065;1199;114704;-74
2021/04/22 20:24:49;;;;;;;9.50;4.30;;;;;;;5.36;79.53;100409.80;714066;1199;115459;-74
2021/04/22 20:40:11;;;;;;;5.65;2.48;;;;;;;4.88;81.48;100399.82;713950;1199;114271;-73
2021/04/22 20:55:31;;;;;;;15.55;4.20;;;;;;;5.22;76.43;100375.11;713889;1202;115191;-73
2021/04/22 21:10:54;;;;;;;7.93;3.07;;;;;;;5.54;70.37;100366.98;714286;1200;114830;-74
2021/04/22 21:26:18;;;;;;;7.27;2.70;;;;;;;5.59;70.22;100358.88;714288;1199;114435;-74
2021/04/22 21:41:39;;;;;;;5.08;2.48;;;;;;;5.49;70.00;100363.88;714963;1199;114622;-73
2021/04/22 21:57:00;;;;;;;4.80;2.18;;;;;;;5.34;69.17;100373.48;714570;1199;113580;-75
2021/04/22 22:12:20;;;;;;;4.83;2.70;;;;;;;5.15;67.37;100366.05;716144;1199;115327;-75
2021/04/22 22:27:43;;;;;;;6.27;2.67;;;;;;;5.14;66.83;100353.97;714331;1199;113713;-74
2021/04/22 22:43:07;;;;;;;7.28;3.08;;;;;;;5.29;68.23;100363.39;714137;1199;114681;-74
2021/04/22 22:58:32;;;;;;;3.20;1.85;;;;;;;5.24;67.59;100370.66;714090;1199;114191;-75
2021/04/22 23:13:53;;;;;;;5.13;2.60;;;;;;;5.11;67.42;100381.00;714161;1202;113317;-74
2021/04/22 23:29:13;;;;;;;3.60;1.68;;;;;;;5.13;68.39;100378.30;714167;1200;114109;-74
2021/04/22 23:44:34;;;;;;;7.30;3.10;;;;;;;5.13;68.99;100389.55;714053;1199;114084;-73
2021/04/22 23:59:54;;;;;;;5.57;1.93;;;;;;;5.14;68.77;100401.61;714046;1203;113222;-73
